sensor_id;sensor_type;location;lat;lon;timestamp;P1;durP1;ratioP1;P2;durP2;ratioP2
28605;SDS011;46498;49.968;7.754;2023-06-04T00:04:34;3.75;;;1.10;;
28605;SDS011;46498;49.968;7.754;2023-06-04T00:09:35;4.30;;;1.33;;
28605;SDS011;46498;49.968;7.754;2023-06-04T00:14:36;7.15;;;1.40;;
28605;SDS011;46498;49.968;7.754;2023-06-04T00:19:40;4.25;;;1.30;;
28605;SDS011;46498;49.968;7.754;2023-06-04T00:24:41;4.43;;;1.20;;
28605;SDS011;46498;49.968;7.754;2023-06-04T00:29:42;3.58;;;1.42;;
28605;SDS011;46498;49.968;7.754;2023-06-04T00:34:50;4.12;;;1.60;;
28605;SDS011;46498;49.968;7.754;2023-06-04T00:39:55;4.53;;;1.50;;
28605;SDS011;46498;49.968;7.754;2023-06-04T00:44:56;5.15;;;1.70;;
28605;SDS011;46498;49.968;7.754;2023-06-04T00:49:58;7.57;;;1.47;;
28605;SDS011;46498;49.968;7.754;2023-06-04T00:54:59;3.30;;;1.30;;
28605;SDS011;46498;49.968;7.754;2023-06-04T01:00:01;7.90;;;1.42;;
28605;SDS011;46498;49.968;7.754;2023-06-04T01:05:16;2.80;;;1.45;;
28605;SDS011;46498;49.968;7.754;2023-06-04T01:10:23;2.90;;;1.20;;
28605;SDS011;46498;49.968;7.754;2023-06-04T01:15:24;4.03;;;1.20;;
28605;SDS011;46498;49.968;7.754;2023-06-04T01:20:36;2.40;;;1.10;;
28605;SDS011;46498;49.968;7.754;2023-06-04T01:25:42;5.72;;;1.30;;
28605;SDS011;46498;49.968;7.754;2023-06-04T01:35:48;2.62;;;1.12;;
28605;SDS011;46498;49.968;7.754;2023-06-04T01:40:49;2.55;;;1.10;;
28605;SDS011;46498;49.968;7.754;2023-06-04T01:45:51;5.07;;;1.37;;
28605;SDS011;46498;49.968;7.754;2023-06-04T01:50:52;2.45;;;1.00;;
28605;SDS011;46498;49.968;7.754;2023-06-04T01:55:53;3.83;;;1.20;;
28605;SDS011;46498;49.968;7.754;2023-06-04T02:00:55;2.47;;;1.02;;
28605;SDS011;46498;49.968;7.754;2023-06-04T02:06:00;6.35;;;1.30;;
28605;SDS011;46498;49.968;7.754;2023-06-04T02:11:01;3.87;;;1.25;;
28605;SDS011;46498;49.968;7.754;2023-06-04T02:16:08;4.57;;;1.10;;
28605;SDS011;46498;49.968;7.754;2023-06-04T02:21:09;3.75;;;1.30;;
28605;SDS011;46498;49.968;7.754;2023-06-04T02:26:10;4.43;;;1.45;;
28605;SDS011;46498;49.968;7.754;2023-06-04T02:31:11;1.67;;;1.00;;
28605;SDS011;46498;49.968;7.754;2023-06-04T02:36:12;4.10;;;1.40;;
28605;SDS011;46498;49.968;7.754;2023-06-04T02:41:13;2.42;;;0.98;;
28605;SDS011;46498;49.968;7.754;2023-06-04T02:46:14;3.03;;;1.33;;
28605;SDS011;46498;49.968;7.754;2023-06-04T02:51:15;1.67;;;1.00;;
28605;SDS011;46498;49.968;7.754;2023-06-04T02:56:17;2.77;;;1.27;;
28605;SDS011;46498;49.968;7.754;2023-06-04T03:01:19;2.22;;;1.20;;
28605;SDS011;46498;49.968;7.754;2023-06-04T03:06:24;3.97;;;1.40;;
28605;SDS011;46498;49.968;7.754;2023-06-04T03:11:26;5.10;;;1.45;;
28605;SDS011;46498;49.968;7.754;2023-06-04T03:16:28;10.23;;;1.52;;
28605;SDS011;46498;49.968;7.754;2023-06-04T03:21:31;1.90;;;1.08;;
28605;SDS011;46498;49.968;7.754;2023-06-04T03:26:32;2.78;;;1.40;;
28605;SDS011;46498;49.968;7.754;2023-06-04T03:31:34;3.35;;;1.50;;
28605;SDS011;46498;49.968;7.754;2023-06-04T03:36:35;3.95;;;1.58;;
28605;SDS011;46498;49.968;7.754;2023-06-04T03:41:39;1.90;;;1.17;;
28605;SDS011;46498;49.968;7.754;2023-06-04T03:51:45;5.00;;;1.50;;
28605;SDS011;46498;49.968;7.754;2023-06-04T03:56:46;6.18;;;1.37;;
28605;SDS011;46498;49.968;7.754;2023-06-04T04:01:47;3.55;;;1.30;;
28605;SDS011;46498;49.968;7.754;2023-06-04T04:06:49;2.92;;;1.27;;
28605;SDS011;46498;49.968;7.754;2023-06-04T04:11:50;3.80;;;1.62;;
28605;SDS011;46498;49.968;7.754;2023-06-04T04:16:51;4.57;;;1.27;;
28605;SDS011;46498;49.968;7.754;2023-06-04T04:21:53;3.55;;;1.40;;
28605;SDS011;46498;49.968;7.754;2023-06-04T04:26:54;7.95;;;1.50;;
28605;SDS011;46498;49.968;7.754;2023-06-04T04:31:56;5.82;;;1.37;;
28605;SDS011;46498;49.968;7.754;2023-06-04T04:37:01;3.97;;;1.33;;
28605;SDS011;46498;49.968;7.754;2023-06-04T04:42:03;5.85;;;1.80;;
28605;SDS011;46498;49.968;7.754;2023-06-04T04:47:04;6.85;;;1.87;;
28605;SDS011;46498;49.968;7.754;2023-06-04T04:52:05;6.57;;;2.03;;
28605;SDS011;46498;49.968;7.754;2023-06-04T04:57:12;2.92;;;1.30;;
28605;SDS011;46498;49.968;7.754;2023-06-04T05:02:17;3.37;;;1.70;;
28605;SDS011;46498;49.968;7.754;2023-06-04T05:07:21;5.45;;;1.30;;
28605;SDS011;46498;49.968;7.754;2023-06-04T05:12:25;6.68;;;1.35;;
28605;SDS011;46498;49.968;7.754;2023-06-04T05:17:27;2.47;;;1.03;;
28605;SDS011;46498;49.968;7.754;2023-06-04T05:22:33;4.85;;;1.52;;
28605;SDS011;46498;49.968;7.754;2023-06-04T05:27:37;2.58;;;1.50;;
28605;SDS011;46498;49.968;7.754;2023-06-04T05:32:41;5.70;;;1.85;;
28605;SDS011;46498;49.968;7.754;2023-06-04T05:37:45;4.20;;;1.60;;
28605;SDS011;46498;49.968;7.754;2023-06-04T05:42:56;6.35;;;1.73;;
28605;SDS011;46498;49.968;7.754;2023-06-04T05:48:00;3.75;;;1.73;;
28605;SDS011;46498;49.968;7.754;2023-06-04T05:53:04;3.15;;;1.77;;
28605;SDS011;46498;49.968;7.754;2023-06-04T05:58:05;5.00;;;1.40;;
28605;SDS011;46498;49.968;7.754;2023-06-04T06:03:06;6.20;;;1.60;;
28605;SDS011;46498;49.968;7.754;2023-06-04T06:08:13;3.53;;;1.30;;
28605;SDS011;46498;49.968;7.754;2023-06-04T06:13:16;3.70;;;1.42;;
28605;SDS011;46498;49.968;7.754;2023-06-04T06:18:17;6.35;;;1.60;;
28605;SDS011;46498;49.968;7.754;2023-06-04T06:23:19;3.77;;;1.30;;
28605;SDS011;46498;49.968;7.754;2023-06-04T06:28:22;4.68;;;1.45;;
28605;SDS011;46498;49.968;7.754;2023-06-04T06:33:26;3.80;;;1.10;;
28605;SDS011;46498;49.968;7.754;2023-06-04T06:38:29;2.80;;;1.00;;
28605;SDS011;46498;49.968;7.754;2023-06-04T06:43:32;7.03;;;1.40;;
28605;SDS011;46498;49.968;7.754;2023-06-04T06:48:33;2.75;;;1.10;;
28605;SDS011;46498;49.968;7.754;2023-06-04T06:53:34;3.85;;;1.50;;
28605;SDS011;46498;49.968;7.754;2023-06-04T06:58:39;3.22;;;1.37;;
28605;SDS011;46498;49.968;7.754;2023-06-04T07:03:44;3.15;;;1.27;;
28605;SDS011;46498;49.968;7.754;2023-06-04T07:08:46;5.85;;;1.08;;
28605;SDS011;46498;49.968;7.754;2023-06-04T07:13:54;6.12;;;1.35;;
28605;SDS011;46498;49.968;7.754;2023-06-04T07:18:55;5.72;;;1.55;;
28605;SDS011;46498;49.968;7.754;2023-06-04T07:24:02;4.75;;;1.40;;
28605;SDS011;46498;49.968;7.754;2023-06-04T07:29:04;4.05;;;1.50;;
28605;SDS011;46498;49.968;7.754;2023-06-04T07:34:05;5.03;;;1.30;;
28605;SDS011;46498;49.968;7.754;2023-06-04T07:39:06;3.25;;;1.35;;
28605;SDS011;46498;49.968;7.754;2023-06-04T07:44:07;5.55;;;1.40;;
28605;SDS011;46498;49.968;7.754;2023-06-04T07:49:09;2.80;;;1.25;;
28605;SDS011;46498;49.968;7.754;2023-06-04T07:54:09;4.50;;;1.40;;
28605;SDS011;46498;49.968;7.754;2023-06-04T07:59:11;1.83;;;1.25;;
28605;SDS011;46498;49.968;7.754;2023-06-04T08:04:11;4.53;;;1.42;;
28605;SDS011;46498;49.968;7.754;2023-06-04T08:09:13;4.87;;;1.83;;
28605;SDS011;46498;49.968;7.754;2023-06-04T08:14:14;3.92;;;1.35;;
28605;SDS011;46498;49.968;7.754;2023-06-04T08:19:15;7.80;;;1.65;;
28605;SDS011;46498;49.968;7.754;2023-06-04T08:24:16;10.77;;;1.80;;
28605;SDS011;46498;49.968;7.754;2023-06-04T08:29:17;3.62;;;1.50;;
28605;SDS011;46498;49.968;7.754;2023-06-04T08:34:18;6.35;;;1.45;;
28605;SDS011;46498;49.968;7.754;2023-06-04T08:39:19;2.55;;;1.33;;
28605;SDS011;46498;49.968;7.754;2023-06-04T08:44:21;7.07;;;1.40;;
28605;SDS011;46498;49.968;7.754;2023-06-04T08:49:22;4.32;;;1.35;;
28605;SDS011;46498;49.968;7.754;2023-06-04T08:54:26;5.72;;;1.60;;
28605;SDS011;46498;49.968;7.754;2023-06-04T08:59:27;5.20;;;1.40;;
28605;SDS011;46498;49.968;7.754;2023-06-04T09:04:29;5.18;;;1.62;;
28605;SDS011;46498;49.968;7.754;2023-06-04T09:09:29;2.83;;;1.30;;
28605;SDS011;46498;49.968;7.754;2023-06-04T09:14:33;4.95;;;1.12;;
28605;SDS011;46498;49.968;7.754;2023-06-04T09:19:34;4.45;;;1.40;;
28605;SDS011;46498;49.968;7.754;2023-06-04T09:24:44;2.33;;;1.30;;
28605;SDS011;46498;49.968;7.754;2023-06-04T09:35:11;3.78;;;1.45;;
28605;SDS011;46498;49.968;7.754;2023-06-04T09:40:16;5.97;;;1.83;;
28605;SDS011;46498;49.968;7.754;2023-06-04T09:45:27;4.28;;;1.35;;
28605;SDS011;46498;49.968;7.754;2023-06-04T09:50:32;4.78;;;1.50;;
28605;SDS011;46498;49.968;7.754;2023-06-04T09:55:35;5.15;;;1.70;;
28605;SDS011;46498;49.968;7.754;2023-06-04T10:00:37;3.55;;;1.60;;
28605;SDS011;46498;49.968;7.754;2023-06-04T10:05:38;7.22;;;1.42;;
28605;SDS011;46498;49.968;7.754;2023-06-04T10:10:39;5.90;;;1.40;;
28605;SDS011;46498;49.968;7.754;2023-06-04T10:15:40;11.02;;;6.03;;
28605;SDS011;46498;49.968;7.754;2023-06-04T10:20:42;4.90;;;1.45;;
28605;SDS011;46498;49.968;7.754;2023-06-04T10:25:43;8.63;;;4.10;;
28605;SDS011;46498;49.968;7.754;2023-06-04T10:30:46;6.20;;;1.70;;
28605;SDS011;46498;49.968;7.754;2023-06-04T10:35:48;4.30;;;1.60;;
28605;SDS011;46498;49.968;7.754;2023-06-04T10:40:51;3.92;;;1.55;;
28605;SDS011;46498;49.968;7.754;2023-06-04T10:45:54;5.93;;;1.52;;
28605;SDS011;46498;49.968;7.754;2023-06-04T10:50:56;7.28;;;1.58;;
28605;SDS011;46498;49.968;7.754;2023-06-04T10:55:59;5.30;;;1.85;;
28605;SDS011;46498;49.968;7.754;2023-06-04T11:01:00;6.03;;;1.60;;
28605;SDS011;46498;49.968;7.754;2023-06-04T11:06:16;3.12;;;1.80;;
28605;SDS011;46498;49.968;7.754;2023-06-04T11:11:17;6.47;;;1.77;;
28605;SDS011;46498;49.968;7.754;2023-06-04T11:16:19;3.70;;;1.75;;
28605;SDS011;46498;49.968;7.754;2023-06-04T11:21:24;4.45;;;1.77;;
28605;SDS011;46498;49.968;7.754;2023-06-04T11:26:34;4.95;;;1.83;;
28605;SDS011;46498;49.968;7.754;2023-06-04T11:31:44;3.42;;;2.00;;
28605;SDS011;46498;49.968;7.754;2023-06-04T11:36:50;3.83;;;2.05;;
28605;SDS011;46498;49.968;7.754;2023-06-04T11:41:55;3.37;;;2.00;;
28605;SDS011;46498;49.968;7.754;2023-06-04T11:46:57;5.85;;;1.85;;
28605;SDS011;46498;49.968;7.754;2023-06-04T11:51:59;4.47;;;1.73;;
28605;SDS011;46498;49.968;7.754;2023-06-04T11:57:00;4.07;;;2.08;;
28605;SDS011;46498;49.968;7.754;2023-06-04T12:02:02;3.92;;;1.60;;
28605;SDS011;46498;49.968;7.754;2023-06-04T12:07:04;4.50;;;2.08;;
28605;SDS011;46498;49.968;7.754;2023-06-04T12:12:20;4.20;;;1.83;;
28605;SDS011;46498;49.968;7.754;2023-06-04T12:17:22;2.83;;;1.55;;
28605;SDS011;46498;49.968;7.754;2023-06-04T12:22:23;2.87;;;1.52;;
28605;SDS011;46498;49.968;7.754;2023-06-04T12:27:25;4.55;;;1.87;;
28605;SDS011;46498;49.968;7.754;2023-06-04T12:32:29;9.43;;;2.20;;
28605;SDS011;46498;49.968;7.754;2023-06-04T12:37:35;2.55;;;1.70;;
28605;SDS011;46498;49.968;7.754;2023-06-04T12:42:36;6.53;;;1.87;;
28605;SDS011;46498;49.968;7.754;2023-06-04T12:47:37;3.92;;;1.62;;
28605;SDS011;46498;49.968;7.754;2023-06-04T12:52:38;5.72;;;1.92;;
28605;SDS011;46498;49.968;7.754;2023-06-04T12:57:39;3.67;;;1.90;;
28605;SDS011;46498;49.968;7.754;2023-06-04T13:02:40;3.83;;;2.03;;
28605;SDS011;46498;49.968;7.754;2023-06-04T13:07:41;3.85;;;1.67;;
28605;SDS011;46498;49.968;7.754;2023-06-04T13:12:42;5.85;;;1.85;;
28605;SDS011;46498;49.968;7.754;2023-06-04T13:17:43;2.58;;;1.58;;
28605;SDS011;46498;49.968;7.754;2023-06-04T13:22:46;3.40;;;1.90;;
28605;SDS011;46498;49.968;7.754;2023-06-04T13:27:53;6.43;;;1.67;;
28605;SDS011;46498;49.968;7.754;2023-06-04T13:32:54;4.37;;;1.45;;
28605;SDS011;46498;49.968;7.754;2023-06-04T13:37:56;4.70;;;1.70;;
28605;SDS011;46498;49.968;7.754;2023-06-04T13:42:57;4.35;;;1.65;;
28605;SDS011;46498;49.968;7.754;2023-06-04T13:47:58;4.27;;;1.93;;
28605;SDS011;46498;49.968;7.754;2023-06-04T13:53:03;5.05;;;2.00;;
28605;SDS011;46498;49.968;7.754;2023-06-04T13:58:03;4.35;;;2.03;;
28605;SDS011;46498;49.968;7.754;2023-06-04T14:03:05;7.70;;;1.80;;
28605;SDS011;46498;49.968;7.754;2023-06-04T14:08:06;6.43;;;1.70;;
28605;SDS011;46498;49.968;7.754;2023-06-04T14:13:08;4.75;;;1.75;;
28605;SDS011;46498;49.968;7.754;2023-06-04T14:18:09;3.80;;;1.80;;
28605;SDS011;46498;49.968;7.754;2023-06-04T14:23:10;3.33;;;1.80;;
28605;SDS011;46498;49.968;7.754;2023-06-04T14:28:12;2.62;;;1.92;;
28605;SDS011;46498;49.968;7.754;2023-06-04T14:33:13;5.55;;;2.00;;
28605;SDS011;46498;49.968;7.754;2023-06-04T14:38:14;2.70;;;1.52;;
28605;SDS011;46498;49.968;7.754;2023-06-04T14:43:15;2.97;;;1.83;;
28605;SDS011;46498;49.968;7.754;2023-06-04T14:48:17;4.53;;;1.87;;
28605;SDS011;46498;49.968;7.754;2023-06-04T14:53:18;5.43;;;1.70;;
28605;SDS011;46498;49.968;7.754;2023-06-04T14:58:19;3.25;;;1.75;;
28605;SDS011;46498;49.968;7.754;2023-06-04T15:03:20;3.37;;;1.48;;
28605;SDS011;46498;49.968;7.754;2023-06-04T15:08:23;4.00;;;1.60;;
28605;SDS011;46498;49.968;7.754;2023-06-04T15:13:27;3.55;;;1.80;;
28605;SDS011;46498;49.968;7.754;2023-06-04T15:18:31;3.62;;;1.67;;
28605;SDS011;46498;49.968;7.754;2023-06-04T15:23:40;3.30;;;1.87;;
28605;SDS011;46498;49.968;7.754;2023-06-04T15:28:41;3.75;;;2.00;;
28605;SDS011;46498;49.968;7.754;2023-06-04T15:33:53;4.70;;;2.00;;
28605;SDS011;46498;49.968;7.754;2023-06-04T15:38:54;3.97;;;1.55;;
28605;SDS011;46498;49.968;7.754;2023-06-04T15:43:58;4.12;;;1.83;;
28605;SDS011;46498;49.968;7.754;2023-06-04T15:49:05;4.43;;;1.70;;
28605;SDS011;46498;49.968;7.754;2023-06-04T15:54:07;2.85;;;1.95;;
28605;SDS011;46498;49.968;7.754;2023-06-04T15:59:13;7.12;;;2.05;;
28605;SDS011;46498;49.968;7.754;2023-06-04T16:04:14;2.53;;;1.80;;
28605;SDS011;46498;49.968;7.754;2023-06-04T16:09:17;2.47;;;1.70;;
28605;SDS011;46498;49.968;7.754;2023-06-04T16:14:18;2.70;;;1.90;;
28605;SDS011;46498;49.968;7.754;2023-06-04T16:19:21;4.03;;;1.77;;
28605;SDS011;46498;49.968;7.754;2023-06-04T16:24:23;4.53;;;1.90;;
28605;SDS011;46498;49.968;7.754;2023-06-04T16:29:24;4.37;;;1.80;;
28605;SDS011;46498;49.968;7.754;2023-06-04T16:34:25;5.60;;;2.20;;
28605;SDS011;46498;49.968;7.754;2023-06-04T16:39:26;3.60;;;1.77;;
28605;SDS011;46498;49.968;7.754;2023-06-04T16:44:27;7.07;;;2.15;;
28605;SDS011;46498;49.968;7.754;2023-06-04T16:49:28;5.18;;;2.40;;
28605;SDS011;46498;49.968;7.754;2023-06-04T16:54:29;5.82;;;2.08;;
28605;SDS011;46498;49.968;7.754;2023-06-04T16:59:30;4.45;;;2.30;;
28605;SDS011;46498;49.968;7.754;2023-06-04T17:04:32;4.87;;;2.90;;
28605;SDS011;46498;49.968;7.754;2023-06-04T17:09:36;5.97;;;2.17;;
28605;SDS011;46498;49.968;7.754;2023-06-04T17:14:38;4.20;;;2.37;;
28605;SDS011;46498;49.968;7.754;2023-06-04T17:19:38;5.15;;;2.95;;
28605;SDS011;46498;49.968;7.754;2023-06-04T17:29:42;4.93;;;2.75;;
28605;SDS011;46498;49.968;7.754;2023-06-04T17:34:43;4.25;;;2.40;;
28605;SDS011;46498;49.968;7.754;2023-06-04T17:39:44;3.95;;;2.40;;
28605;SDS011;46498;49.968;7.754;2023-06-04T17:44:45;5.82;;;2.90;;
28605;SDS011;46498;49.968;7.754;2023-06-04T17:49:46;7.95;;;3.22;;
28605;SDS011;46498;49.968;7.754;2023-06-04T17:54:47;3.25;;;2.65;;
28605;SDS011;46498;49.968;7.754;2023-06-04T17:59:49;3.83;;;2.90;;
28605;SDS011;46498;49.968;7.754;2023-06-04T18:04:50;5.93;;;2.97;;
28605;SDS011;46498;49.968;7.754;2023-06-04T18:09:52;5.53;;;3.50;;
28605;SDS011;46498;49.968;7.754;2023-06-04T18:14:53;5.18;;;3.30;;
28605;SDS011;46498;49.968;7.754;2023-06-04T18:19:53;6.32;;;3.35;;
28605;SDS011;46498;49.968;7.754;2023-06-04T18:24:54;5.30;;;3.50;;
28605;SDS011;46498;49.968;7.754;2023-06-04T18:29:55;6.95;;;3.30;;
28605;SDS011;46498;49.968;7.754;2023-06-04T18:34:56;6.00;;;3.42;;
28605;SDS011;46498;49.968;7.754;2023-06-04T18:39:58;8.77;;;3.40;;
28605;SDS011;46498;49.968;7.754;2023-06-04T18:45:04;4.90;;;3.17;;
28605;SDS011;46498;49.968;7.754;2023-06-04T18:50:07;6.80;;;3.87;;
28605;SDS011;46498;49.968;7.754;2023-06-04T18:55:09;5.15;;;3.70;;
28605;SDS011;46498;49.968;7.754;2023-06-04T19:00:10;4.80;;;3.50;;
28605;SDS011;46498;49.968;7.754;2023-06-04T19:05:12;5.17;;;3.43;;
28605;SDS011;46498;49.968;7.754;2023-06-04T19:10:16;8.80;;;3.50;;
28605;SDS011;46498;49.968;7.754;2023-06-04T19:15:17;5.97;;;3.47;;
28605;SDS011;46498;49.968;7.754;2023-06-04T19:20:18;6.00;;;3.40;;
28605;SDS011;46498;49.968;7.754;2023-06-04T19:25:19;6.82;;;3.30;;
28605;SDS011;46498;49.968;7.754;2023-06-04T19:30:20;5.40;;;3.15;;
28605;SDS011;46498;49.968;7.754;2023-06-04T19:35:24;7.87;;;3.60;;
28605;SDS011;46498;49.968;7.754;2023-06-04T19:40:25;9.82;;;3.10;;
28605;SDS011;46498;49.968;7.754;2023-06-04T19:45:26;7.90;;;3.42;;
28605;SDS011;46498;49.968;7.754;2023-06-04T19:50:27;5.05;;;2.50;;
28605;SDS011;46498;49.968;7.754;2023-06-04T19:55:29;5.37;;;2.75;;
28605;SDS011;46498;49.968;7.754;2023-06-04T20:00:30;5.15;;;2.95;;
28605;SDS011;46498;49.968;7.754;2023-06-04T20:05:31;4.05;;;2.78;;
28605;SDS011;46498;49.968;7.754;2023-06-04T20:10:32;4.10;;;2.33;;
28605;SDS011;46498;49.968;7.754;2023-06-04T20:15:33;5.35;;;2.50;;
28605;SDS011;46498;49.968;7.754;2023-06-04T20:20:34;6.43;;;2.33;;
28605;SDS011;46498;49.968;7.754;2023-06-04T20:25:34;4.12;;;2.30;;
28605;SDS011;46498;49.968;7.754;2023-06-04T20:30:36;5.28;;;2.30;;
28605;SDS011;46498;49.968;7.754;2023-06-04T20:35:36;3.17;;;1.85;;
28605;SDS011;46498;49.968;7.754;2023-06-04T20:40:37;4.25;;;1.80;;
28605;SDS011;46498;49.968;7.754;2023-06-04T20:45:38;3.97;;;2.20;;
28605;SDS011;46498;49.968;7.754;2023-06-04T20:50:39;3.05;;;1.98;;
28605;SDS011;46498;49.968;7.754;2023-06-04T20:55:40;3.15;;;1.90;;
28605;SDS011;46498;49.968;7.754;2023-06-04T21:00:41;3.22;;;1.80;;
28605;SDS011;46498;49.968;7.754;2023-06-04T21:05:43;3.70;;;1.95;;
28605;SDS011;46498;49.968;7.754;2023-06-04T21:10:45;4.80;;;2.00;;
28605;SDS011;46498;49.968;7.754;2023-06-04T21:15:46;3.45;;;2.00;;
28605;SDS011;46498;49.968;7.754;2023-06-04T21:20:47;3.55;;;1.62;;
28605;SDS011;46498;49.968;7.754;2023-06-04T21:25:48;2.45;;;1.45;;
28605;SDS011;46498;49.968;7.754;2023-06-04T21:30:49;3.72;;;1.67;;
28605;SDS011;46498;49.968;7.754;2023-06-04T21:35:50;3.28;;;1.70;;
28605;SDS011;46498;49.968;7.754;2023-06-04T21:40:51;3.55;;;1.95;;
28605;SDS011;46498;49.968;7.754;2023-06-04T21:45:52;3.05;;;1.60;;
28605;SDS011;46498;49.968;7.754;2023-06-04T21:50:53;6.40;;;1.75;;
28605;SDS011;46498;49.968;7.754;2023-06-04T21:55:54;4.75;;;1.70;;
28605;SDS011;46498;49.968;7.754;2023-06-04T22:00:55;4.25;;;1.67;;
28605;SDS011;46498;49.968;7.754;2023-06-04T22:05:56;5.60;;;1.85;;
28605;SDS011;46498;49.968;7.754;2023-06-04T22:10:57;4.57;;;1.50;;
28605;SDS011;46498;49.968;7.754;2023-06-04T22:15:58;2.45;;;1.70;;
28605;SDS011;46498;49.968;7.754;2023-06-04T22:20:59;6.62;;;1.50;;
28605;SDS011;46498;49.968;7.754;2023-06-04T22:26:00;2.80;;;1.40;;
28605;SDS011;46498;49.968;7.754;2023-06-04T22:31:01;6.65;;;1.58;;
28605;SDS011;46498;49.968;7.754;2023-06-04T22:36:02;2.35;;;1.35;;
28605;SDS011;46498;49.968;7.754;2023-06-04T22:41:03;3.65;;;1.67;;
28605;SDS011;46498;49.968;7.754;2023-06-04T22:46:04;6.60;;;2.08;;
28605;SDS011;46498;49.968;7.754;2023-06-04T22:51:05;2.72;;;1.33;;
28605;SDS011;46498;49.968;7.754;2023-06-04T22:56:06;6.78;;;1.30;;
28605;SDS011;46498;49.968;7.754;2023-06-04T23:01:09;3.65;;;1.75;;
28605;SDS011;46498;49.968;7.754;2023-06-04T23:06:11;4.95;;;1.37;;
28605;SDS011;46498;49.968;7.754;2023-06-04T23:11:12;2.03;;;1.30;;
28605;SDS011;46498;49.968;7.754;2023-06-04T23:16:13;4.62;;;1.48;;
28605;SDS011;46498;49.968;7.754;2023-06-04T23:21:14;2.62;;;1.20;;
28605;SDS011;46498;49.968;7.754;2023-06-04T23:26:15;5.87;;;1.52;;
28605;SDS011;46498;49.968;7.754;2023-06-04T23:31:16;3.12;;;1.40;;
28605;SDS011;46498;49.968;7.754;2023-06-04T23:36:17;3.75;;;1.35;;
28605;SDS011;46498;49.968;7.754;2023-06-04T23:41:18;3.05;;;1.77;;
28605;SDS011;46498;49.968;7.754;2023-06-04T23:46:19;2.72;;;1.40;;
28605;SDS011;46498;49.968;7.754;2023-06-04T23:51:20;3.53;;;1.10;;
28605;SDS011;46498;49.968;7.754;2023-06-04T23:56:20;3.22;;;1.33;;
